createdAt,value
2019-05-15T00:00:38.731Z,4.70
2019-05-15T00:03:09.552Z,4.70
2019-05-15T00:05:40.246Z,4.70
2019-05-15T00:08:11.106Z,4.70
2019-05-15T00:10:41.767Z,4.60
2019-05-15T00:13:12.497Z,4.70
2019-05-15T00:15:43.708Z,4.60
2019-05-15T00:18:14.458Z,4.50
2019-05-15T00:20:45.193Z,4.50
2019-05-15T00:23:18.182Z,4.50
2019-05-15T00:25:48.883Z,4.50
2019-05-15T00:28:19.687Z,4.50
2019-05-15T00:30:50.381Z,4.40
2019-05-15T00:33:21.100Z,4.30
2019-05-15T00:35:51.839Z,4.30
2019-05-15T00:38:22.492Z,4.30
2019-05-15T00:40:53.201Z,4.30
2019-05-15T00:43:23.828Z,4.30
2019-05-15T00:45:54.498Z,4.20
2019-05-15T00:48:25.265Z,4.30
2019-05-15T00:50:55.918Z,4.20
2019-05-15T00:53:28.261Z,4.20
2019-05-15T00:55:59.120Z,4.10
2019-05-15T00:58:29.779Z,4.20
2019-05-15T01:01:00.449Z,4.20
2019-05-15T01:03:31.089Z,4.10
2019-05-15T01:06:02.404Z,4.00
2019-05-15T01:08:34.738Z,4.10
2019-05-15T01:11:05.318Z,4.10
2019-05-15T01:13:35.981Z,4.10
2019-05-15T01:16:08.887Z,4.00
2019-05-15T01:18:39.842Z,4.00
2019-05-15T01:21:10.661Z,4.10
2019-05-15T01:23:41.580Z,4.10
2019-05-15T01:26:12.252Z,4.10
2019-05-15T01:28:43.116Z,4.10
2019-05-15T01:31:13.795Z,4.10
2019-05-15T01:33:45.348Z,4.20
2019-05-15T01:36:16.024Z,4.30
2019-05-15T01:38:48.057Z,4.20
2019-05-15T01:41:19.049Z,4.30
2019-05-15T01:43:49.848Z,4.30
2019-05-15T01:46:20.557Z,4.30
2019-05-15T01:48:51.279Z,4.30
2019-05-15T01:51:21.948Z,4.30
2019-05-15T01:53:52.714Z,4.40
2019-05-15T01:56:23.382Z,4.40
2019-05-15T01:58:54.046Z,4.40
2019-05-15T02:01:24.693Z,4.40
2019-05-15T02:03:55.415Z,4.50
2019-05-15T02:06:28.333Z,4.50
2019-05-15T02:08:58.804Z,4.50
2019-05-15T02:11:29.592Z,4.50
2019-05-15T02:14:00.285Z,4.50
2019-05-15T02:16:31.015Z,4.50
2019-05-15T02:19:01.852Z,4.60
2019-05-15T02:21:32.516Z,4.50
2019-05-15T02:24:03.193Z,4.60
2019-05-15T02:26:34.714Z,4.60
2019-05-15T02:29:07.861Z,4.60
2019-05-15T02:31:39.636Z,4.70
2019-05-15T02:34:10.562Z,4.70
2019-05-15T02:36:42.138Z,4.70
2019-05-15T02:39:12.797Z,4.70
2019-05-15T02:41:44.830Z,4.70
2019-05-15T02:44:15.486Z,4.70
2019-05-15T02:46:50.007Z,4.80
2019-05-15T02:49:21.199Z,4.70
2019-05-15T02:51:51.860Z,4.70
2019-05-15T02:54:22.476Z,4.70
2019-05-15T02:56:53.177Z,4.70
2019-05-15T02:59:23.987Z,4.70
2019-05-15T03:01:54.640Z,4.60
2019-05-15T03:04:25.299Z,4.60
2019-05-15T03:06:56.125Z,4.50
2019-05-15T03:09:29.811Z,4.50
2019-05-15T03:11:59.281Z,4.50
2019-05-15T03:14:29.924Z,4.50
2019-05-15T03:17:00.775Z,4.50
2019-05-15T03:19:31.445Z,4.60
2019-05-15T03:22:02.133Z,4.60
2019-05-15T03:24:32.895Z,4.60
2019-05-15T03:27:03.716Z,4.50
2019-05-15T03:29:35.416Z,4.60
2019-05-15T03:32:22.943Z,4.60
2019-05-15T03:34:46.916Z,4.50
2019-05-15T03:37:12.003Z,4.60
2019-05-15T03:39:48.471Z,4.60
2019-05-15T03:42:19.133Z,4.70
2019-05-15T03:44:50.265Z,4.70
2019-05-15T03:47:21.095Z,4.70
2019-05-15T03:49:53.651Z,4.70
2019-05-15T03:52:25.729Z,4.80
2019-05-15T03:54:58.790Z,4.80
2019-05-15T03:57:31.650Z,4.90
2019-05-15T04:00:02.356Z,4.90
2019-05-15T04:02:33.752Z,4.90
2019-05-15T04:05:05.115Z,5.00
2019-05-15T04:07:35.822Z,5.10
2019-05-15T04:10:09.906Z,5.10
2019-05-15T04:12:40.985Z,5.20
2019-05-15T04:15:12.069Z,5.30
2019-05-15T04:17:43.241Z,5.30
2019-05-15T04:20:15.232Z,5.50
2019-05-15T04:22:49.239Z,5.50
2019-05-15T04:25:19.981Z,5.70
2019-05-15T04:27:51.301Z,5.60
2019-05-15T04:30:21.989Z,5.80
2019-05-15T04:32:54.307Z,5.80
2019-05-15T04:35:25.019Z,5.90
2019-05-15T04:37:55.650Z,5.90
2019-05-15T04:40:29.706Z,5.90
2019-05-15T04:42:59.521Z,5.90
2019-05-15T04:45:34.768Z,5.80
2019-05-15T04:48:02.601Z,5.90
2019-05-15T04:50:33.758Z,6.00
2019-05-15T04:53:04.423Z,6.10
2019-05-15T04:55:35.086Z,6.10
2019-05-15T04:58:05.791Z,6.20
2019-05-15T05:00:53.604Z,6.20
2019-05-15T05:03:24.290Z,6.20
2019-05-15T05:05:54.978Z,6.20
2019-05-15T05:08:28.695Z,6.20
2019-05-15T05:10:59.310Z,6.20
2019-05-15T05:13:30.096Z,6.20
2019-05-15T05:16:00.792Z,6.20
2019-05-15T05:18:31.398Z,6.20
2019-05-15T05:21:02.046Z,6.30
2019-05-15T05:23:33.056Z,6.30
2019-05-15T05:26:03.771Z,6.40
2019-05-15T05:28:34.403Z,6.40
2019-05-15T05:31:05.187Z,6.40
2019-05-15T05:33:37.954Z,6.40
2019-05-15T05:36:08.217Z,6.40
2019-05-15T05:38:39.590Z,6.40
2019-05-15T05:41:10.626Z,6.40
2019-05-15T05:43:41.515Z,6.40
2019-05-15T05:46:12.192Z,6.50
2019-05-15T05:48:43.206Z,6.60
2019-05-15T05:51:13.865Z,6.60
2019-05-15T05:53:44.523Z,6.70
2019-05-15T05:56:15.177Z,6.80
2019-05-15T05:58:45.893Z,6.80
2019-05-15T06:01:18.718Z,6.90
2019-05-15T06:03:49.299Z,6.90
2019-05-15T06:06:20.117Z,6.90
2019-05-15T06:08:51.011Z,7.00
2019-05-15T06:11:21.659Z,7.10
2019-05-15T06:13:52.698Z,7.10
2019-05-15T06:16:23.424Z,7.20
2019-05-15T06:18:54.818Z,7.20
2019-05-15T06:21:25.611Z,7.20
2019-05-15T06:24:03.454Z,7.20
2019-05-15T06:26:29.193Z,7.30
2019-05-15T06:28:59.910Z,7.30
2019-05-15T06:31:30.579Z,7.30
2019-05-15T06:34:01.261Z,7.30
2019-05-15T06:36:32.786Z,7.30
2019-05-15T06:39:05.633Z,7.30
2019-05-15T06:41:39.056Z,7.40
2019-05-15T06:44:09.699Z,7.40
2019-05-15T06:46:40.495Z,7.50
2019-05-15T06:49:11.137Z,7.50
2019-05-15T06:51:43.311Z,7.60
2019-05-15T06:54:15.083Z,7.60
2019-05-15T06:56:45.926Z,7.50
2019-05-15T06:59:18.011Z,7.60
2019-05-15T07:01:49.052Z,7.60
2019-05-15T07:04:19.736Z,7.60
2019-05-15T07:06:50.634Z,7.60
2019-05-15T07:09:21.419Z,7.60
2019-05-15T07:11:52.088Z,7.60
2019-05-15T07:14:22.747Z,7.60
2019-05-15T07:16:53.421Z,7.60
2019-05-15T07:19:24.184Z,7.70
2019-05-15T07:21:57.947Z,7.70
2019-05-15T07:24:28.959Z,7.70
2019-05-15T07:27:00.150Z,7.90
2019-05-15T07:29:31.080Z,7.90
2019-05-15T07:32:01.760Z,8.00
2019-05-15T07:34:32.452Z,8.00
2019-05-15T07:37:03.122Z,8.00
2019-05-15T07:39:34.095Z,8.20
2019-05-15T07:42:05.132Z,8.30
2019-05-15T07:44:38.866Z,8.40
2019-05-15T07:47:09.042Z,8.40
2019-05-15T07:49:39.761Z,8.40
2019-05-15T07:52:11.191Z,8.50
2019-05-15T07:54:42.962Z,8.70
2019-05-15T07:57:19.365Z,8.80
2019-05-15T07:59:49.947Z,8.70
2019-05-15T08:02:22.669Z,8.70
2019-05-15T08:04:53.381Z,8.90
2019-05-15T08:07:27.895Z,9.00
2019-05-15T08:09:59.433Z,9.30
2019-05-15T08:12:30.163Z,9.20
2019-05-15T08:15:01.112Z,9.30
2019-05-15T08:17:33.326Z,9.30
2019-05-15T08:20:05.778Z,9.20
2019-05-15T08:22:38.273Z,9.00
2019-05-15T08:25:27.644Z,8.80
2019-05-15T08:27:45.198Z,9.00
2019-05-15T08:30:19.912Z,9.10
2019-05-15T08:32:51.711Z,9.10
2019-05-15T08:35:22.558Z,9.10
2019-05-15T08:37:53.438Z,9.20
2019-05-15T08:40:24.105Z,9.50
2019-05-15T08:43:01.669Z,9.60
2019-05-15T08:45:28.606Z,9.70
2019-05-15T08:47:59.306Z,9.90
2019-05-15T08:50:30.071Z,9.90
2019-05-15T08:53:00.851Z,10.10
2019-05-15T08:55:31.538Z,10.20
2019-05-15T08:58:07.355Z,10.20
2019-05-15T09:00:34.983Z,10.30
2019-05-15T09:03:05.695Z,10.50
2019-05-15T09:05:38.856Z,10.30
2019-05-15T09:08:09.506Z,10.30
2019-05-15T09:10:41.000Z,10.30
2019-05-15T09:13:11.952Z,10.40
2019-05-15T09:15:52.465Z,10.60
2019-05-15T09:18:28.518Z,10.90
2019-05-15T09:21:00.356Z,10.90
2019-05-15T09:23:32.398Z,11.00
2019-05-15T09:26:03.635Z,11.10
2019-05-15T09:28:38.706Z,11.00
2019-05-15T09:31:15.356Z,11.10
2019-05-15T09:33:49.242Z,11.50
2019-05-15T09:36:22.029Z,11.80
2019-05-15T09:38:52.846Z,11.80
2019-05-15T09:41:23.527Z,11.80
2019-05-15T09:44:03.853Z,11.80
2019-05-15T09:46:34.679Z,12.00
2019-05-15T09:49:05.392Z,12.00
2019-05-15T09:51:38.319Z,12.10
2019-05-15T09:54:08.671Z,12.00
2019-05-15T09:56:39.592Z,11.70
2019-05-15T09:59:10.523Z,11.80
2019-05-15T10:01:44.373Z,11.80
2019-05-15T10:04:15.848Z,11.90
2019-05-15T10:06:48.592Z,12.20
2019-05-15T10:09:19.661Z,12.50
2019-05-15T10:11:50.772Z,12.70
2019-05-15T10:14:22.894Z,12.80
2019-05-15T10:16:58.421Z,12.70
2019-05-15T10:19:29.109Z,12.60
2019-05-15T10:21:59.979Z,12.50
2019-05-15T10:24:30.673Z,12.60
2019-05-15T10:27:01.467Z,12.70
2019-05-15T10:29:32.204Z,12.60
2019-05-15T10:32:03.007Z,12.30
2019-05-15T10:34:33.914Z,12.40
2019-05-15T10:37:04.745Z,12.40
2019-05-15T10:39:35.570Z,12.40
2019-05-15T10:42:08.286Z,12.60
2019-05-15T10:44:39.651Z,13.00
2019-05-15T10:47:10.436Z,13.40
2019-05-15T10:49:41.168Z,13.70
2019-05-15T10:52:11.827Z,13.80
2019-05-15T10:54:43.557Z,14.20
2019-05-15T10:57:14.267Z,14.40
2019-05-15T10:59:44.948Z,14.40
2019-05-15T11:02:15.595Z,14.40
2019-05-15T11:04:48.577Z,14.30
2019-05-15T11:07:19.624Z,14.20
2019-05-15T11:09:50.554Z,14.00
2019-05-15T11:12:22.673Z,13.80
2019-05-15T11:14:54.999Z,13.90
2019-05-15T11:17:25.745Z,14.00
2019-05-15T11:19:58.521Z,13.90
2019-05-15T11:22:29.859Z,14.00
2019-05-15T11:25:00.685Z,13.90
2019-05-15T11:27:31.603Z,13.90
2019-05-15T11:30:02.304Z,13.80
2019-05-15T11:32:32.981Z,14.00
2019-05-15T11:35:04.670Z,14.00
2019-05-15T11:37:35.534Z,13.80
2019-05-15T11:40:10.040Z,14.30
2019-05-15T11:42:41.303Z,14.40
2019-05-15T11:45:13.591Z,14.30
2019-05-15T11:47:45.255Z,14.30
2019-05-15T11:50:19.999Z,14.30
2019-05-15T11:52:48.993Z,14.20
2019-05-15T11:55:20.299Z,14.10
2019-05-15T11:57:53.548Z,14.10
2019-05-15T12:00:27.006Z,14.10
2019-05-15T12:02:58.484Z,14.20
2019-05-15T12:05:29.229Z,14.50
2019-05-15T12:07:59.912Z,14.60
2019-05-15T12:10:30.781Z,14.50
2019-05-15T12:13:01.435Z,14.40
2019-05-15T12:15:32.320Z,14.40
2019-05-15T12:18:03.060Z,14.40
2019-05-15T12:20:34.053Z,14.60
2019-05-15T12:23:04.758Z,14.80
2019-05-15T12:25:35.482Z,15.10
2019-05-15T12:28:09.686Z,15.30
2019-05-15T12:33:11.935Z,15.30
2019-05-15T12:35:42.909Z,15.00
2019-05-15T12:38:13.722Z,14.90
2019-05-15T13:01:14.674Z,14.10
2019-05-15T13:03:39.178Z,14.30
2019-05-15T13:06:09.998Z,14.40
2019-05-15T13:08:41.756Z,14.70
2019-05-15T13:11:15.138Z,15.00
2019-05-15T13:13:44.973Z,14.90
2019-05-15T13:16:15.646Z,14.60
2019-05-15T13:18:48.112Z,14.60
2019-05-15T13:21:20.880Z,14.40
2019-05-15T13:23:51.382Z,14.50
2019-05-15T13:26:24.533Z,14.40
2019-05-15T13:28:54.558Z,14.30
2019-05-15T13:31:25.468Z,14.20
2019-05-15T13:33:58.563Z,14.00
2019-05-15T13:36:29.076Z,14.00
2019-05-15T13:38:59.911Z,13.80
2019-05-15T13:41:31.000Z,13.80
2019-05-15T13:44:01.727Z,13.90
2019-05-15T13:46:33.666Z,13.70
2019-05-15T13:49:04.582Z,13.90
2019-05-15T13:51:38.155Z,14.10
2019-05-15T13:54:08.640Z,14.20
2019-05-15T13:56:40.536Z,14.30
2019-05-15T13:59:11.366Z,14.30
2019-05-15T14:01:42.443Z,14.40
2019-05-15T14:04:22.203Z,14.30
2019-05-15T14:06:53.216Z,14.30
2019-05-15T14:09:24.328Z,14.40
2019-05-15T14:11:55.180Z,14.30
2019-05-15T14:14:28.534Z,14.10
2019-05-15T14:16:59.242Z,14.00
2019-05-15T14:19:30.414Z,14.10
2019-05-15T14:22:01.072Z,14.00
2019-05-15T14:24:32.561Z,13.70
2019-05-15T14:27:03.425Z,13.50
2019-05-15T14:29:34.491Z,13.40
2019-05-15T14:32:05.277Z,13.40
2019-05-15T14:34:38.135Z,13.10
2019-05-15T14:37:13.896Z,12.90
2019-05-15T14:39:44.807Z,12.80
2019-05-15T14:42:18.665Z,12.70
2019-05-15T14:44:48.591Z,12.60
2019-05-15T14:47:19.388Z,12.50
2019-05-15T14:49:50.198Z,12.30
2019-05-15T14:52:20.890Z,12.20
2019-05-15T14:54:51.945Z,12.20
2019-05-15T14:57:22.707Z,12.30
2019-05-15T14:59:55.010Z,12.20
2019-05-15T15:02:25.700Z,12.30
2019-05-15T15:04:59.220Z,12.30
2019-05-15T15:07:28.989Z,12.30
2019-05-15T15:10:00.031Z,12.20
2019-05-15T15:12:34.601Z,12.00
2019-05-15T15:15:09.042Z,12.20
2019-05-15T15:17:39.353Z,12.00
2019-05-15T15:20:11.116Z,11.90
2019-05-15T15:22:43.737Z,12.00
2019-05-15T15:25:14.650Z,12.00
2019-05-15T15:27:48.665Z,12.00
2019-05-15T15:30:23.979Z,12.00
2019-05-15T15:33:03.140Z,12.10
2019-05-15T15:35:34.117Z,12.20
2019-05-15T15:38:04.897Z,12.30
2019-05-15T15:40:38.585Z,12.30
2019-05-15T15:43:10.532Z,12.30
2019-05-15T15:45:42.604Z,12.10
2019-05-15T15:48:13.447Z,12.20
2019-05-15T15:50:45.105Z,12.20
2019-05-15T15:53:15.758Z,12.20
2019-05-15T15:55:48.804Z,12.10
2019-05-15T15:58:20.024Z,12.10
2019-05-15T16:00:50.905Z,12.00
2019-05-15T16:03:21.671Z,12.00
2019-05-15T16:05:53.226Z,12.00
2019-05-15T16:08:24.156Z,12.00
2019-05-15T16:10:54.848Z,12.00
2019-05-15T16:13:25.705Z,12.00
2019-05-15T16:15:57.931Z,11.90
2019-05-15T16:18:29.064Z,11.80
2019-05-15T16:21:03.976Z,11.80
2019-05-15T16:23:35.297Z,11.80
2019-05-15T16:26:06.111Z,11.70
2019-05-15T16:28:41.695Z,11.80
2019-05-15T16:31:14.995Z,11.70
2019-05-15T16:33:48.067Z,11.60
2019-05-15T16:36:19.734Z,11.60
2019-05-15T16:39:03.886Z,11.40
2019-05-15T16:41:33.878Z,11.40
2019-05-15T16:44:08.407Z,11.50
2019-05-15T16:46:39.283Z,11.50
2019-05-15T16:49:10.407Z,11.50
2019-05-15T16:51:43.399Z,11.50
2019-05-15T16:54:18.060Z,11.50
2019-05-15T16:56:49.005Z,11.50
2019-05-15T16:59:20.004Z,11.50
2019-05-15T17:01:52.817Z,11.50
2019-05-15T17:04:23.616Z,11.50
2019-05-15T17:06:54.493Z,11.40
2019-05-15T17:09:25.216Z,11.40
2019-05-15T17:11:58.208Z,11.40
2019-05-15T17:14:29.879Z,11.40
2019-05-15T17:17:00.634Z,11.40
2019-05-15T17:19:32.532Z,11.40
2019-05-15T17:22:03.318Z,11.40
2019-05-15T17:24:34.537Z,11.50
2019-05-15T17:27:10.326Z,11.50
2019-05-15T17:29:41.681Z,11.60
2019-05-15T17:32:12.844Z,11.50
2019-05-15T17:34:48.839Z,11.50
2019-05-15T17:37:20.230Z,11.40
2019-05-15T17:39:55.377Z,11.40
2019-05-15T17:42:28.872Z,11.40
2019-05-15T17:44:59.146Z,11.40
2019-05-15T17:47:29.978Z,11.40
2019-05-15T17:50:01.707Z,11.30
2019-05-15T17:52:33.083Z,11.30
2019-05-15T17:55:04.237Z,11.30
2019-05-15T17:57:38.344Z,11.20
2019-05-15T18:00:12.258Z,11.20
2019-05-15T18:02:42.961Z,11.20
2019-05-15T18:05:14.773Z,11.20
2019-05-15T18:07:48.899Z,11.20
2019-05-15T18:10:21.344Z,11.10
2019-05-15T18:12:52.296Z,11.00
2019-05-15T18:15:23.316Z,10.90
2019-05-15T18:17:54.670Z,10.90
2019-05-15T18:20:29.553Z,10.90
2019-05-15T18:23:00.998Z,10.80
2019-05-15T18:25:33.053Z,10.80
2019-05-15T18:28:04.540Z,10.70
2019-05-15T18:30:35.774Z,10.70
2019-05-15T18:34:04.034Z,10.60
2019-05-15T18:36:35.029Z,10.60
2019-05-15T18:39:08.480Z,10.60
2019-05-15T18:41:40.755Z,10.50
2019-05-15T18:44:15.468Z,10.40
2019-05-15T18:46:48.606Z,10.30
2019-05-15T18:49:19.552Z,10.30
2019-05-15T18:51:50.432Z,10.20
2019-05-15T18:54:21.239Z,10.20
2019-05-15T18:56:54.341Z,10.10
2019-05-15T18:59:25.295Z,10.10
2019-05-15T19:01:58.510Z,10.10
2019-05-15T19:04:28.910Z,10.10
2019-05-15T19:06:59.759Z,10.10
2019-05-15T19:09:30.776Z,10.00
2019-05-15T19:12:02.580Z,10.00
2019-05-15T19:17:08.116Z,10.00
2019-05-15T19:19:38.935Z,9.90
2019-05-15T19:22:09.737Z,9.90
2019-05-15T19:24:41.375Z,9.90
2019-05-15T19:27:12.910Z,9.90
2019-05-15T19:29:59.051Z,9.80
2019-05-15T19:32:31.428Z,9.70
2019-05-15T19:35:02.424Z,9.60
2019-05-15T19:37:33.833Z,9.60
2019-05-15T19:40:23.078Z,9.60
2019-05-15T19:42:58.659Z,9.50
2019-05-15T19:45:28.921Z,9.50
2019-05-15T19:48:02.666Z,9.40
2019-05-15T19:50:34.589Z,9.40
2019-05-15T19:53:05.489Z,9.40
2019-05-15T19:55:43.355Z,9.40
2019-05-15T19:58:28.645Z,9.40
2019-05-15T20:01:00.205Z,9.30
2019-05-15T20:03:30.859Z,9.40
2019-05-15T20:06:01.877Z,9.30
2019-05-15T20:08:32.525Z,9.20
2019-05-15T20:11:03.271Z,9.30
2019-05-15T20:13:35.626Z,9.30
2019-05-15T20:16:06.374Z,9.20
2019-05-15T20:18:39.380Z,9.20
2019-05-15T20:21:10.168Z,9.30
2019-05-15T20:23:42.115Z,9.20
2019-05-15T20:26:12.825Z,9.10
2019-05-15T20:28:43.781Z,9.10
2019-05-15T20:31:14.552Z,9.10
2019-05-15T20:33:45.375Z,9.00
2019-05-15T20:36:18.233Z,9.10
2019-05-15T20:38:48.527Z,9.10
2019-05-15T20:41:19.608Z,9.00
2019-05-15T20:43:50.289Z,9.10
2019-05-15T20:46:21.007Z,9.10
2019-05-15T20:48:52.574Z,9.10
2019-05-15T20:51:23.205Z,9.20
2019-05-15T20:53:53.988Z,9.20
2019-05-15T20:56:28.100Z,9.20
2019-05-15T20:58:58.557Z,9.20
2019-05-15T21:01:30.002Z,9.20
2019-05-15T21:04:00.757Z,9.20
2019-05-15T21:06:31.513Z,9.10
2019-05-15T21:09:02.173Z,9.10
2019-05-15T21:11:33.252Z,9.10
2019-05-15T21:14:03.889Z,9.10
2019-05-15T21:16:34.551Z,9.10
2019-05-15T21:19:05.178Z,9.00
2019-05-15T21:21:35.919Z,9.00
2019-05-15T21:24:06.581Z,9.00
2019-05-15T21:26:38.240Z,9.00
2019-05-15T21:29:09.056Z,8.90
2019-05-15T21:31:40.536Z,8.80
2019-05-15T21:34:11.226Z,8.80
2019-05-15T21:36:42.863Z,8.80
2019-05-15T21:39:13.602Z,8.70
2019-05-15T21:41:44.902Z,8.70
2019-05-15T21:44:15.887Z,8.70
2019-05-15T21:46:48.151Z,8.60
2019-05-15T21:49:19.247Z,8.50
2019-05-15T21:51:49.982Z,8.60
2019-05-15T21:54:20.794Z,8.50
2019-05-15T21:56:51.468Z,8.50
2019-05-15T21:59:22.166Z,8.50
2019-05-15T22:01:53.066Z,8.50
2019-05-15T22:04:23.753Z,8.50
2019-05-15T22:06:54.465Z,8.40
2019-05-15T22:09:25.289Z,8.50
2019-05-15T22:12:00.907Z,8.40
2019-05-15T22:14:29.964Z,8.40
2019-05-15T22:17:01.176Z,8.30
2019-05-15T22:19:32.035Z,8.30
2019-05-15T22:22:02.939Z,8.30
2019-05-15T22:24:33.841Z,8.10
2019-05-15T22:27:04.522Z,8.10
2019-05-15T22:29:37.850Z,8.00
2019-05-15T22:32:08.183Z,8.00
2019-05-15T22:34:39.025Z,7.90
2019-05-15T22:37:09.721Z,7.90
2019-05-15T22:39:42.161Z,7.70
2019-05-15T22:42:12.841Z,7.80
2019-05-15T22:44:44.116Z,7.80
2019-05-15T22:47:14.766Z,7.70
2019-05-15T22:49:45.467Z,7.70
2019-05-15T22:52:18.334Z,7.70
2019-05-15T22:54:48.542Z,7.70
2019-05-15T22:57:19.197Z,7.70
2019-05-15T22:59:49.838Z,7.60
2019-05-15T23:02:20.603Z,7.60
2019-05-15T23:04:51.236Z,7.60
2019-05-15T23:07:21.923Z,7.50
2019-05-15T23:09:52.602Z,7.60
2019-05-15T23:12:24.690Z,7.50
2019-05-15T23:14:55.343Z,7.50
2019-05-15T23:17:27.727Z,7.40
2019-05-15T23:19:58.409Z,7.30
2019-05-15T23:22:29.292Z,7.30
2019-05-15T23:24:59.980Z,7.30
2019-05-15T23:27:30.609Z,7.30
2019-05-15T23:30:02.054Z,7.30
2019-05-15T23:32:32.732Z,7.30
2019-05-15T23:35:03.830Z,7.30
2019-05-15T23:37:34.568Z,7.30
2019-05-15T23:40:08.551Z,7.30
2019-05-15T23:42:39.440Z,7.30
2019-05-15T23:45:10.770Z,7.20
2019-05-15T23:47:42.992Z,7.20
2019-05-15T23:50:13.874Z,7.20
2019-05-15T23:52:44.563Z,7.20
2019-05-15T23:55:18.787Z,7.20
2019-05-15T23:57:49.066Z,7.20
